sensor_id;sensor_type;location;lat;lon;timestamp;pressure;altitude;pressure_sealevel;temperature;humidity
5350;BME280;2697;42.144;24.794;2023-08-06T00:00:49;71307.22;;;24.31;100.00
5350;BME280;2697;42.144;24.794;2023-08-06T00:03:15;69562.38;;;24.32;100.00
5350;BME280;2697;42.144;24.794;2023-08-06T00:05:43;70264.22;;;24.35;100.00
5350;BME280;2697;42.144;24.794;2023-08-06T00:08:08;69914.44;;;24.34;100.00
5350;BME280;2697;42.144;24.794;2023-08-06T00:10:34;68512.78;;;24.30;100.00
5350;BME280;2697;42.144;24.794;2023-08-06T00:12:59;70266.56;;;24.37;100.00
5350;BME280;2697;42.144;24.794;2023-08-06T00:15:25;75889.25;;;24.62;100.00
5350;BME280;2697;42.144;24.794;2023-08-06T00:17:50;74464.50;;;24.41;100.00
5350;BME280;2697;42.144;24.794;2023-08-06T00:20:15;75511.59;;;24.39;100.00
5350;BME280;2697;42.144;24.794;2023-08-06T00:22:41;71676.94;;;24.48;100.00
5350;BME280;2697;42.144;24.794;2023-08-06T00:25:06;71671.53;;;24.43;100.00
5350;BME280;2697;42.144;24.794;2023-08-06T00:27:32;69913.84;;;24.34;100.00
5350;BME280;2697;42.144;24.794;2023-08-06T00:29:57;62231.97;;;24.27;100.00
5350;BME280;2697;42.144;24.794;2023-08-06T00:32:23;62936.38;;;24.34;100.00
5350;BME280;2697;42.144;24.794;2023-08-06T00:34:48;58053.06;;;24.27;100.00
5350;BME280;2697;42.144;24.794;2023-08-06T00:37:16;54564.38;;;24.17;100.00
5350;BME280;2697;42.144;24.794;2023-08-06T00:39:42;53532.56;;;24.30;100.00
5350;BME280;2697;42.144;24.794;2023-08-06T00:42:09;56666.16;;;24.33;100.00
5350;BME280;2697;42.144;24.794;2023-08-06T00:44:34;55967.34;;;24.30;100.00
5350;BME280;2697;42.144;24.794;2023-08-06T00:47:00;54912.59;;;24.17;100.00
5350;BME280;2697;42.144;24.794;2023-08-06T00:49:26;58411.00;;;24.37;100.00
5350;BME280;2697;42.144;24.794;2023-08-06T00:51:52;51446.78;;;24.30;100.00
5350;BME280;2697;42.144;24.794;2023-08-06T00:54:17;51442.44;;;24.25;100.00
5350;BME280;2697;42.144;24.794;2023-08-06T00:56:43;49002.78;;;24.15;100.00
5350;BME280;2697;42.144;24.794;2023-08-06T00:59:09;53542.50;;;24.41;100.00
5350;BME280;2697;42.144;24.794;2023-08-06T01:01:35;53880.31;;;24.30;100.00
5350;BME280;2697;42.144;24.794;2023-08-06T01:04:01;52486.00;;;24.26;100.00
5350;BME280;2697;42.144;24.794;2023-08-06T01:12:06;42405.31;;;24.07;100.00
5350;BME280;2697;42.144;24.794;2023-08-06T01:14:47;42056.59;;;24.04;100.00
5350;BME280;2697;42.144;24.794;2023-08-06T01:17:16;38937.69;;;24.03;100.00
5350;BME280;2697;42.144;24.794;2023-08-06T01:19:42;40321.38;;;24.00;100.00
5350;BME280;2697;42.144;24.794;2023-08-06T01:22:07;37551.19;;;24.00;100.00
5350;BME280;2697;42.144;24.794;2023-08-06T01:24:32;36166.81;;;24.00;100.00
5350;BME280;2697;42.144;24.794;2023-08-06T01:27:06;32703.03;;;23.91;100.00
5350;BME280;2697;42.144;24.794;2023-08-06T01:29:39;32715.34;;;24.13;100.00
5350;BME280;2697;42.144;24.794;2023-08-06T01:32:08;36520.34;;;24.12;100.00
5350;BME280;2697;42.144;24.794;2023-08-06T01:34:37;35822.97;;;24.04;100.00
5350;BME280;2697;42.144;24.794;2023-08-06T01:37:04;33062.56;;;24.16;100.00
5350;BME280;2697;42.144;24.794;2023-08-06T01:39:33;37912.19;;;24.24;100.00
5350;BME280;2697;42.144;24.794;2023-08-06T01:41:59;37215.50;;;24.17;100.00
5350;BME280;2697;42.144;24.794;2023-08-06T01:44:24;38600.28;;;24.16;100.00
5350;BME280;2697;42.144;24.794;2023-08-06T01:46:50;37907.03;;;24.15;100.00
5350;BME280;2697;42.144;24.794;2023-08-06T01:49:15;35479.38;;;24.08;100.00
5350;BME280;2697;42.144;24.794;2023-08-06T01:51:40;34786.81;;;24.07;100.00
5350;BME280;2697;42.144;24.794;2023-08-06T01:54:06;33749.41;;;24.07;100.00
5350;BME280;2697;42.144;24.794;2023-08-06T01:56:31;35129.47;;;24.01;100.00
5350;BME280;2697;42.144;24.794;2023-08-06T01:58:56;37905.75;;;24.13;100.00
5350;BME280;2697;42.144;24.794;2023-08-06T02:01:22;35827.53;;;24.11;100.00
5350;BME280;2697;42.144;24.794;2023-08-06T02:03:47;32357.38;;;23.91;100.00
5350;BME280;2697;42.144;24.794;2023-08-06T02:06:12;29244.81;;;23.85;100.00
5350;BME280;2697;42.144;24.794;2023-08-06T02:08:38;27867.56;;;23.93;100.00
5350;BME280;2697;42.144;24.794;2023-08-06T02:11:05;28560.34;;;23.98;100.00
5350;BME280;2697;42.144;24.794;2023-08-06T02:13:30;26138.94;;;23.87;100.00
5350;BME280;2697;42.144;24.794;2023-08-06T02:15:55;24412.69;;;23.84;100.00
5350;BME280;2697;42.144;24.794;2023-08-06T02:18:21;24755.03;;;23.78;100.00
5350;BME280;2697;42.144;24.794;2023-08-06T02:20:59;23721.91;;;23.81;100.00
5350;BME280;2697;42.144;24.794;2023-08-06T02:23:26;22685.81;;;23.77;100.00
5350;BME280;2697;42.144;24.794;2023-08-06T02:26:04;25794.34;;;23.88;100.00
5350;BME280;2697;42.144;24.794;2023-08-06T02:28:30;25102.56;;;23.84;100.00
5350;BME280;2697;42.144;24.794;2023-08-06T02:30:56;24410.59;;;23.79;100.00
5350;BME280;2697;42.144;24.794;2023-08-06T02:33:21;21302.19;;;23.63;100.00
5350;BME280;2697;42.144;24.794;2023-08-06T02:35:47;18888.69;;;23.55;100.00
5350;BME280;2697;42.144;24.794;2023-08-06T02:38:12;16821.75;;;23.48;100.00
5350;BME280;2697;42.144;24.794;2023-08-06T02:40:43;17169.16;;;23.59;100.00
5350;BME280;2697;42.144;24.794;2023-08-06T02:43:09;17167.94;;;23.55;100.00
5350;BME280;2697;42.144;24.794;2023-08-06T02:45:34;17168.84;;;23.58;100.00
5350;BME280;2697;42.144;24.794;2023-08-06T02:48:00;21652.56;;;23.79;100.00
5350;BME280;2697;42.144;24.794;2023-08-06T02:50:25;25100.81;;;23.80;100.00
5350;BME280;2697;42.144;24.794;2023-08-06T02:52:50;23027.13;;;23.68;100.00
5350;BME280;2697;42.144;24.794;2023-08-06T02:55:16;21649.34;;;23.70;100.00
5350;BME280;2697;42.144;24.794;2023-08-06T02:57:41;23036.13;;;23.91;100.00
5350;BME280;2697;42.144;24.794;2023-08-06T03:00:07;23375.28;;;23.77;100.00
5350;BME280;2697;42.144;24.794;2023-08-06T03:02:32;25108.66;;;23.98;100.00
5350;BME280;2697;42.144;24.794;2023-08-06T03:04:58;25100.38;;;23.79;100.00
5350;BME280;2697;42.144;24.794;2023-08-06T03:07:23;21997.41;;;23.79;100.00
5350;BME280;2697;42.144;24.794;2023-08-06T03:09:49;20270.03;;;23.67;100.00
5350;BME280;2697;42.144;24.794;2023-08-06T03:12:14;21651.06;;;23.75;100.00
5350;BME280;2697;42.144;24.794;2023-08-06T03:14:39;20960.06;;;23.70;100.00
5350;BME280;2697;42.144;24.794;2023-08-06T03:17:05;20622.06;;;23.88;100.00
5350;BME280;2697;42.144;24.794;2023-08-06T03:19:30;19239.91;;;23.76;100.00
5350;BME280;2697;42.144;24.794;2023-08-06T03:21:55;17169.78;;;23.62;100.00
5350;BME280;2697;42.144;24.794;2023-08-06T03:24:21;15793.75;;;23.63;100.00
5350;BME280;2697;42.144;24.794;2023-08-06T03:26:46;15449.75;;;23.63;100.00
5350;BME280;2697;42.144;24.794;2023-08-06T03:29:12;14762.88;;;23.67;100.00
5350;BME280;2697;42.144;24.794;2023-08-06T03:31:37;14419.34;;;23.68;100.00
5350;BME280;2697;42.144;24.794;2023-08-06T03:34:02;13387.56;;;23.68;100.00
5350;BME280;2697;42.144;24.794;2023-08-06T03:36:28;13734.16;;;23.79;100.00
5350;BME280;2697;42.144;24.794;2023-08-06T03:38:53;15110.38;;;23.80;100.00
5350;BME280;2697;42.144;24.794;2023-08-06T03:41:18;14765.16;;;23.75;100.00
5350;BME280;2697;42.144;24.794;2023-08-06T03:43:44;14418.94;;;23.67;100.00
5350;BME280;2697;42.144;24.794;2023-08-06T03:46:09;13042.78;;;23.64;100.00
5350;BME280;2697;42.144;24.794;2023-08-06T03:48:34;13043.28;;;23.66;100.00
5350;BME280;2697;42.144;24.794;2023-08-06T03:51:00;12013.34;;;23.72;100.00
5350;BME280;2697;42.144;24.794;2023-08-06T03:53:27;14766.06;;;23.79;100.00
5350;BME280;2697;42.144;24.794;2023-08-06T03:55:52;14076.19;;;23.71;100.00
5350;BME280;2697;42.144;24.794;2023-08-06T03:58:18;14078.47;;;23.80;100.00
5350;BME280;2697;42.144;24.794;2023-08-06T04:00:43;15454.72;;;23.81;100.00
5350;BME280;2697;42.144;24.794;2023-08-06T04:03:09;17868.72;;;23.96;100.00
5350;BME280;2697;42.144;24.794;2023-08-06T04:05:34;18557.69;;;23.96;100.00
5350;BME280;2697;42.144;24.794;2023-08-06T04:07:59;19245.47;;;23.93;100.00
5350;BME280;2697;42.144;24.794;2023-08-06T04:10:25;20626.94;;;24.02;100.00
5350;BME280;2697;42.144;24.794;2023-08-06T04:12:50;20282.47;;;24.02;100.00
5350;BME280;2697;42.144;24.794;2023-08-06T04:15:15;22696.47;;;24.04;100.00
5350;BME280;2697;42.144;24.794;2023-08-06T04:17:41;22696.88;;;24.05;100.00
5350;BME280;2697;42.144;24.794;2023-08-06T04:20:07;25118.00;;;24.20;100.00
5350;BME280;2697;42.144;24.794;2023-08-06T04:22:32;24087.47;;;24.32;100.00
5350;BME280;2697;42.144;24.794;2023-08-06T04:24:57;29261.91;;;24.20;100.00
5350;BME280;2697;42.144;24.794;2023-08-06T04:27:23;30315.25;;;24.52;100.00
5350;BME280;2697;42.144;24.794;2023-08-06T04:29:48;35506.91;;;24.54;100.00
5350;BME280;2697;42.144;24.794;2023-08-06T04:32:14;37236.72;;;24.51;100.00
5350;BME280;2697;42.144;24.794;2023-08-06T04:34:39;31000.81;;;24.40;100.00
5350;BME280;2697;42.144;24.794;2023-08-06T04:37:04;32382.56;;;24.37;100.00
5350;BME280;2697;42.144;24.794;2023-08-06T04:39:30;34462.06;;;24.43;100.00
5350;BME280;2697;42.144;24.794;2023-08-06T04:41:58;34462.34;;;24.44;100.00
5350;BME280;2697;42.144;24.794;2023-08-06T04:44:24;39321.38;;;24.60;100.00
5350;BME280;2697;42.144;24.794;2023-08-06T04:46:50;45217.88;;;24.59;100.00
5350;BME280;2697;42.144;24.794;2023-08-06T04:49:15;41387.38;;;24.39;100.00
5350;BME280;2697;42.144;24.794;2023-08-06T04:51:41;41058.06;;;24.64;100.00
5350;BME280;2697;42.144;24.794;2023-08-06T04:54:06;44180.28;;;24.64;100.00
5350;BME280;2697;42.144;24.794;2023-08-06T04:56:31;44869.59;;;24.57;100.00
5350;BME280;2697;42.144;24.794;2023-08-06T04:58:58;55321.78;;;24.85;100.00
5350;BME280;2697;42.144;24.794;2023-08-06T05:01:23;61281.34;;;25.20;100.00
5350;BME280;2697;42.144;24.794;2023-08-06T05:03:49;81952.91;;;25.45;100.00
5350;BME280;2697;42.144;24.794;2023-08-06T05:06:14;73122.59;;;24.88;100.00
5350;BME280;2697;42.144;24.794;2023-08-06T05:08:39;59830.66;;;24.64;100.00
5350;BME280;2697;42.144;24.794;2023-08-06T05:11:05;60194.31;;;24.80;100.00
5350;BME280;2697;42.144;24.794;2023-08-06T05:13:30;62261.25;;;24.55;100.00
5350;BME280;2697;42.144;24.794;2023-08-06T05:15:55;56688.56;;;24.57;100.00
5350;BME280;2697;42.144;24.794;2023-08-06T05:18:21;67186.16;;;24.92;100.00
5350;BME280;2697;42.144;24.794;2023-08-06T05:20:46;77327.09;;;24.92;100.00
5350;BME280;2697;42.144;24.794;2023-08-06T05:23:12;78757.63;;;25.15;100.00
5350;BME280;2697;42.144;24.794;2023-08-06T05:25:38;92471.34;;;25.31;100.00
5350;BME280;2697;42.144;24.794;2023-08-06T05:28:04;96006.66;;;25.42;100.00
5350;BME280;2697;42.144;24.794;2023-08-06T05:30:30;101994.38;;;25.41;100.00
5350;BME280;2697;42.144;24.794;2023-08-06T05:32:55;103047.06;;;25.38;100.00
5350;BME280;2697;42.144;24.794;2023-08-06T05:35:21;100554.94;;;25.23;100.00
5350;BME280;2697;42.144;24.794;2023-08-06T05:37:47;94219.97;;;25.24;100.00
5350;BME280;2697;42.144;24.794;2023-08-06T05:40:13;82943.13;;;24.99;100.00
5350;BME280;2697;42.144;24.794;2023-08-06T05:42:39;66467.06;;;24.73;100.00
5350;BME280;2697;42.144;24.794;2023-08-06T05:45:04;51807.44;;;24.45;100.00
5350;BME280;2697;42.144;24.794;2023-08-06T05:47:30;41376.13;;;24.23;100.00
5350;BME280;2697;42.144;24.794;2023-08-06T05:49:55;37210.75;;;24.09;100.00
5350;BME280;2697;42.144;24.794;2023-08-06T05:52:21;33398.16;;;23.98;100.00
5350;BME280;2697;42.144;24.794;2023-08-06T05:54:46;37184.16;;;23.67;100.00
5350;BME280;2697;42.144;24.794;2023-08-06T05:57:11;40632.94;;;23.49;100.00
5350;BME280;2697;42.144;24.794;2023-08-06T05:59:37;49282.19;;;23.32;100.00
5350;BME280;2697;42.144;24.794;2023-08-06T06:02:02;47177.16;;;23.00;100.00
5350;BME280;2697;42.144;24.794;2023-08-06T06:04:28;34714.75;;;22.83;100.00
5350;BME280;2697;42.144;24.794;2023-08-06T06:06:53;31254.34;;;22.65;100.00
5350;BME280;2697;42.144;24.794;2023-08-06T06:09:18;25046.97;;;22.54;100.00
5350;BME280;2697;42.144;24.794;2023-08-06T06:11:44;18509.28;;;22.45;100.00
5350;BME280;2697;42.144;24.794;2023-08-06T06:14:09;13700.63;;;22.41;100.00
5350;BME280;2697;42.144;24.794;2023-08-06T06:16:34;7870.81;;;22.39;100.00
5350;BME280;2697;42.144;24.794;2023-08-06T06:19:00;4445.47;;;22.35;100.00
5350;BME280;2697;42.144;24.794;2023-08-06T06:21:25;339.25;;;22.14;100.00
5350;BME280;2697;42.144;24.794;2023-08-06T06:23:50;-3077.38;;;22.05;100.00
5350;BME280;2697;42.144;24.794;2023-08-06T06:26:19;-7513.53;;;21.99;100.00
5350;BME280;2697;42.144;24.794;2023-08-06T06:28:44;-8533.16;;;21.69;100.00
5350;BME280;2697;42.144;24.794;2023-08-06T06:31:09;-9896.97;;;21.75;100.00
5350;BME280;2697;42.144;24.794;2023-08-06T06:33:35;-11944.38;;;21.97;100.00
5350;BME280;2697;42.144;24.794;2023-08-06T06:36:01;-13990.59;;;22.11;100.00
5350;BME280;2697;42.144;24.794;2023-08-06T06:38:28;-16383.88;;;22.54;100.00
5350;BME280;2697;42.144;24.794;2023-08-06T06:40:57;-17403.91;;;22.48;100.00
5350;BME280;2697;42.144;24.794;2023-08-06T06:43:23;-17744.59;;;22.49;100.00
5350;BME280;2697;42.144;24.794;2023-08-06T06:45:57;-16723.56;;;22.51;100.00
5350;BME280;2697;42.144;24.794;2023-08-06T06:48:27;-16390.06;;;22.80;100.00
5350;BME280;2697;42.144;24.794;2023-08-06T06:50:53;-14691.28;;;23.04;100.00
5350;BME280;2697;42.144;24.794;2023-08-06T06:53:18;-11968.81;;;23.43;100.00
5350;BME280;2697;42.144;24.794;2023-08-06T06:55:44;-3424.00;;;23.73;100.00
5350;BME280;2697;42.144;24.794;2023-08-06T06:58:09;2401.94;;;23.92;100.00
5350;BME280;2697;42.144;24.794;2023-08-06T07:00:38;7895.59;;;24.04;100.00
5350;BME280;2697;42.144;24.794;2023-08-06T07:03:04;12709.69;;;24.10;100.00
5350;BME280;2697;42.144;24.794;2023-08-06T07:05:29;21334.06;;;24.50;100.00
5350;BME280;2697;42.144;24.794;2023-08-06T07:07:54;40450.19;;;25.92;100.00
5350;BME280;2697;42.144;24.794;2023-08-06T07:10:20;126980.53;;;26.52;100.00
5350;BME280;2697;42.144;24.794;2023-08-06T07:12:45;132657.06;;;26.46;100.00
5350;BME280;2697;42.144;24.794;2023-08-06T07:15:10;136953.16;;;26.56;100.00
5350;BME280;2697;42.144;24.794;2023-08-06T07:17:36;159399.47;;;26.35;100.00
5350;BME280;2697;42.144;24.794;2023-08-06T07:20:02;156273.06;;;26.12;100.00
5350;BME280;2697;42.144;24.794;2023-08-06T07:22:28;147852.44;;;25.91;100.00
5350;BME280;2697;42.144;24.794;2023-08-06T07:24:53;150373.53;;;26.00;100.00
5350;BME280;2697;42.144;24.794;2023-08-06T07:27:18;159307.56;;;26.00;100.00
5350;BME280;2697;42.144;24.794;2023-08-06T07:29:44;149750.69;;;26.37;100.00
5350;BME280;2697;42.144;24.794;2023-08-06T07:32:09;159402.13;;;26.36;100.00
5350;BME280;2697;42.144;24.794;2023-08-06T07:34:34;159432.78;;;26.48;100.00
5350;BME280;2697;42.144;24.794;2023-08-06T07:37:00;159395.44;;;26.33;100.00
5350;BME280;2697;42.144;24.794;2023-08-06T07:39:25;159360.81;;;26.20;100.00
5350;BME280;2697;42.144;24.794;2023-08-06T07:41:51;157381.06;;;25.86;100.00
5350;BME280;2697;42.144;24.794;2023-08-06T07:44:16;159194.34;;;25.56;100.00
5350;BME280;2697;42.144;24.794;2023-08-06T07:46:41;145651.16;;;25.65;100.00
5350;BME280;2697;42.144;24.794;2023-08-06T07:49:07;159344.84;;;26.14;100.00
5350;BME280;2697;42.144;24.794;2023-08-06T07:51:32;159526.03;;;26.83;100.00
5350;BME280;2697;42.144;24.794;2023-08-06T07:53:58;159551.34;;;26.93;100.00
5350;BME280;2697;42.144;24.794;2023-08-06T07:56:23;159632.66;;;27.24;100.00
5350;BME280;2697;42.144;24.794;2023-08-06T07:58:48;159648.66;;;27.30;100.00
5350;BME280;2697;42.144;24.794;2023-08-06T08:01:14;159547.38;;;26.91;100.00
5350;BME280;2697;42.144;24.794;2023-08-06T08:03:39;159454.13;;;26.56;100.00
5350;BME280;2697;42.144;24.794;2023-08-06T08:06:05;159414.13;;;26.40;100.00
5350;BME280;2697;42.144;24.794;2023-08-06T08:08:30;159316.88;;;26.03;100.00
5350;BME280;2697;42.144;24.794;2023-08-06T08:10:55;159322.19;;;26.05;100.00
5350;BME280;2697;42.144;24.794;2023-08-06T08:13:21;159251.69;;;25.78;100.00
5350;BME280;2697;42.144;24.794;2023-08-06T08:15:46;159166.41;;;25.46;100.00
5350;BME280;2697;42.144;24.794;2023-08-06T08:18:12;159211.66;;;25.63;100.00
5350;BME280;2697;42.144;24.794;2023-08-06T08:20:37;132410.25;;;25.32;100.00
5350;BME280;2697;42.144;24.794;2023-08-06T08:23:02;121325.81;;;24.87;100.00
5350;BME280;2697;42.144;24.794;2023-08-06T08:25:28;98305.72;;;24.39;100.00
5350;BME280;2697;42.144;24.794;2023-08-06T08:27:54;69896.25;;;24.18;100.00
5350;BME280;2697;42.144;24.794;2023-08-06T08:30:20;58717.25;;;23.94;100.00
5350;BME280;2697;42.144;24.794;2023-08-06T08:32:47;46540.19;;;23.73;100.00
5350;BME280;2697;42.144;24.794;2023-08-06T08:35:12;38217.56;;;23.59;100.00
5350;BME280;2697;42.144;24.794;2023-08-06T08:37:38;27846.44;;;23.48;100.00
5350;BME280;2697;42.144;24.794;2023-08-06T08:40:08;20604.56;;;23.39;100.00
5350;BME280;2697;42.144;24.794;2023-08-06T08:42:34;14408.44;;;23.25;100.00
5350;BME280;2697;42.144;24.794;2023-08-06T08:44:59;12345.78;;;23.21;100.00
5350;BME280;2697;42.144;24.794;2023-08-06T08:47:25;8226.47;;;23.23;100.00
5350;BME280;2697;42.144;24.794;2023-08-06T08:49:54;8225.81;;;23.19;100.00
5350;BME280;2697;42.144;24.794;2023-08-06T08:52:21;7539.16;;;23.15;100.00
5350;BME280;2697;42.144;24.794;2023-08-06T08:54:48;8913.28;;;23.26;100.00
5350;BME280;2697;42.144;24.794;2023-08-06T08:57:18;5484.19;;;23.39;100.00
5350;BME280;2697;42.144;24.794;2023-08-06T08:59:44;9258.97;;;23.40;100.00
5350;BME280;2697;42.144;24.794;2023-08-06T09:02:11;14072.13;;;23.55;100.00
5350;BME280;2697;42.144;24.794;2023-08-06T09:04:39;18892.00;;;23.65;100.00
5350;BME280;2697;42.144;24.794;2023-08-06T09:07:05;15110.38;;;23.80;100.00
5350;BME280;2697;42.144;24.794;2023-08-06T09:09:34;15807.88;;;24.13;100.00
5350;BME280;2697;42.144;24.794;2023-08-06T09:12:14;32058.91;;;24.79;100.00
5350;BME280;2697;42.144;24.794;2023-08-06T09:14:40;68325.09;;;25.73;100.00
5350;BME280;2697;42.144;24.794;2023-08-06T09:17:06;118466.53;;;26.55;100.00
5350;BME280;2697;42.144;24.794;2023-08-06T09:19:32;159575.34;;;27.02;100.00
5350;BME280;2697;42.144;24.794;2023-08-06T09:21:58;159704.63;;;27.51;100.00
5350;BME280;2697;42.144;24.794;2023-08-06T09:24:23;159838.00;;;28.02;100.00
5350;BME280;2697;42.144;24.794;2023-08-06T09:26:50;159936.72;;;28.40;100.00
5350;BME280;2697;42.144;24.794;2023-08-06T09:29:15;160034.06;;;28.77;100.00
5350;BME280;2697;42.144;24.794;2023-08-06T09:31:42;159952.69;;;28.46;100.00
5350;BME280;2697;42.144;24.794;2023-08-06T09:34:15;159934.06;;;28.39;100.00
5350;BME280;2697;42.144;24.794;2023-08-06T09:36:49;159963.38;;;28.50;100.00
5350;BME280;2697;42.144;24.794;2023-08-06T09:39:20;159943.38;;;28.43;100.00
5350;BME280;2697;42.144;24.794;2023-08-06T09:41:46;160011.41;;;28.68;100.00
5350;BME280;2697;42.144;24.794;2023-08-06T09:44:20;160107.47;;;29.05;99.99
5350;BME280;2697;42.144;24.794;2023-08-06T09:46:50;160190.19;;;29.37;86.61
5350;BME280;2697;42.144;24.794;2023-08-06T09:49:18;160206.22;;;29.43;85.15
5350;BME280;2697;42.144;24.794;2023-08-06T09:51:44;160211.53;;;29.45;90.96
5350;BME280;2697;42.144;24.794;2023-08-06T09:54:12;160176.88;;;29.32;85.89
5350;BME280;2697;42.144;24.794;2023-08-06T09:56:38;160171.50;;;29.30;88.17
5350;BME280;2697;42.144;24.794;2023-08-06T09:59:07;160178.19;;;29.32;78.28
5350;BME280;2697;42.144;24.794;2023-08-06T10:01:34;160240.94;;;29.56;77.65
5350;BME280;2697;42.144;24.794;2023-08-06T10:04:01;160307.66;;;29.82;73.75
5350;BME280;2697;42.144;24.794;2023-08-06T10:06:28;160361.03;;;30.02;71.74
5350;BME280;2697;42.144;24.794;2023-08-06T10:08:54;160350.41;;;29.98;71.74
5350;BME280;2697;42.144;24.794;2023-08-06T10:11:21;160299.69;;;29.78;71.43
5350;BME280;2697;42.144;24.794;2023-08-06T10:13:50;160267.63;;;29.66;69.79
5350;BME280;2697;42.144;24.794;2023-08-06T10:16:19;160295.63;;;29.77;69.50
5350;BME280;2697;42.144;24.794;2023-08-06T10:18:46;160367.72;;;30.04;67.74
5350;BME280;2697;42.144;24.794;2023-08-06T10:21:13;160349.06;;;29.97;68.81
5350;BME280;2697;42.144;24.794;2023-08-06T10:23:40;160310.34;;;29.83;69.04
5350;BME280;2697;42.144;24.794;2023-08-06T10:26:06;160409.16;;;30.20;67.11
5350;BME280;2697;42.144;24.794;2023-08-06T10:28:36;160462.53;;;30.41;65.47
5350;BME280;2697;42.144;24.794;2023-08-06T10:31:02;160411.81;;;30.21;65.08
5350;BME280;2697;42.144;24.794;2023-08-06T10:33:48;160503.94;;;30.56;65.14
5350;BME280;2697;42.144;24.794;2023-08-06T10:36:14;160494.63;;;30.53;62.01
5350;BME280;2697;42.144;24.794;2023-08-06T10:38:49;160462.53;;;30.41;60.30
5350;BME280;2697;42.144;24.794;2023-08-06T10:41:23;160411.81;;;30.21;59.48
5350;BME280;2697;42.144;24.794;2023-08-06T10:43:52;160435.84;;;30.30;60.79
5350;BME280;2697;42.144;24.794;2023-08-06T10:46:30;160489.25;;;30.51;57.84
5350;BME280;2697;42.144;24.794;2023-08-06T10:48:55;160610.81;;;30.97;58.71
5350;BME280;2697;42.144;24.794;2023-08-06T10:51:20;160612.16;;;30.98;54.31
5350;BME280;2697;42.144;24.794;2023-08-06T10:53:47;160656.22;;;31.14;54.94
5350;BME280;2697;42.144;24.794;2023-08-06T10:56:19;160785.84;;;31.64;53.65
5350;BME280;2697;42.144;24.794;2023-08-06T10:58:48;160911.53;;;32.12;52.23
5350;BME280;2697;42.144;24.794;2023-08-06T11:01:14;160884.78;;;32.01;50.43
5350;BME280;2697;42.144;24.794;2023-08-06T11:03:41;160967.72;;;32.33;48.50
5350;BME280;2697;42.144;24.794;2023-08-06T11:06:08;160855.38;;;31.90;49.50
5350;BME280;2697;42.144;24.794;2023-08-06T11:08:36;160975.72;;;32.36;48.20
5350;BME280;2697;42.144;24.794;2023-08-06T11:11:09;160961.03;;;32.30;47.73
5350;BME280;2697;42.144;24.794;2023-08-06T11:13:36;161027.84;;;32.56;47.82
5350;BME280;2697;42.144;24.794;2023-08-06T11:16:03;161061.28;;;32.69;47.26
5350;BME280;2697;42.144;24.794;2023-08-06T11:18:28;161084.03;;;32.77;46.86
5350;BME280;2697;42.144;24.794;2023-08-06T11:20:54;161196.34;;;33.20;45.56
5350;BME280;2697;42.144;24.794;2023-08-06T11:23:19;161094.69;;;32.81;43.95
5350;BME280;2697;42.144;24.794;2023-08-06T11:25:45;160978.38;;;32.37;45.74
5350;BME280;2697;42.144;24.794;2023-08-06T11:28:11;161011.84;;;32.50;45.90
5350;BME280;2697;42.144;24.794;2023-08-06T11:30:37;161050.56;;;32.65;44.61
5350;BME280;2697;42.144;24.794;2023-08-06T11:33:03;161010.50;;;32.49;44.40
5350;BME280;2697;42.144;24.794;2023-08-06T11:35:28;161092.03;;;32.80;43.48
5350;BME280;2697;42.144;24.794;2023-08-06T11:37:53;160983.78;;;32.39;44.15
5350;BME280;2697;42.144;24.794;2023-08-06T11:40:20;160983.78;;;32.39;43.80
5350;BME280;2697;42.144;24.794;2023-08-06T11:42:46;160948.94;;;32.26;44.28
5350;BME280;2697;42.144;24.794;2023-08-06T11:45:12;160997.09;;;32.44;43.19
5350;BME280;2697;42.144;24.794;2023-08-06T11:47:38;161062.63;;;32.69;44.79
5350;BME280;2697;42.144;24.794;2023-08-06T11:50:07;161153.56;;;33.04;43.69
5350;BME280;2697;42.144;24.794;2023-08-06T11:52:32;161133.53;;;32.96;42.48
5350;BME280;2697;42.144;24.794;2023-08-06T11:55:08;161170.94;;;33.10;42.20
5350;BME280;2697;42.144;24.794;2023-08-06T11:57:37;161174.94;;;33.12;42.49
5350;BME280;2697;42.144;24.794;2023-08-06T12:00:06;161125.47;;;32.93;42.69
5350;BME280;2697;42.144;24.794;2023-08-06T12:02:33;161078.63;;;32.75;42.42
5350;BME280;2697;42.144;24.794;2023-08-06T12:05:11;161170.94;;;33.10;40.92
5350;BME280;2697;42.144;24.794;2023-08-06T12:07:38;161134.88;;;32.97;41.60
5350;BME280;2697;42.144;24.794;2023-08-06T12:10:04;161114.81;;;32.89;41.47
5350;BME280;2697;42.144;24.794;2023-08-06T12:12:30;161084.03;;;32.77;40.30
5350;BME280;2697;42.144;24.794;2023-08-06T12:14:56;161037.22;;;32.59;41.80
5350;BME280;2697;42.144;24.794;2023-08-06T12:17:25;161071.97;;;32.73;40.96
5350;BME280;2697;42.144;24.794;2023-08-06T12:19:51;161121.47;;;32.92;40.08
5350;BME280;2697;42.144;24.794;2023-08-06T12:22:16;160912.88;;;32.12;40.40
5350;BME280;2697;42.144;24.794;2023-08-06T12:24:46;160851.38;;;31.89;41.28
5350;BME280;2697;42.144;24.794;2023-08-06T12:27:12;160874.09;;;31.97;41.54
5350;BME280;2697;42.144;24.794;2023-08-06T12:29:42;160870.09;;;31.96;41.62
5350;BME280;2697;42.144;24.794;2023-08-06T12:32:09;160908.81;;;32.11;41.37
5350;BME280;2697;42.144;24.794;2023-08-06T12:34:34;160991.78;;;32.42;40.66
5350;BME280;2697;42.144;24.794;2023-08-06T12:37:00;160981.03;;;32.38;40.41
5350;BME280;2697;42.144;24.794;2023-08-06T12:39:25;160948.94;;;32.26;40.83
5350;BME280;2697;42.144;24.794;2023-08-06T12:41:53;160983.78;;;32.39;40.72
5350;BME280;2697;42.144;24.794;2023-08-06T12:44:19;160997.09;;;32.44;40.10
5350;BME280;2697;42.144;24.794;2023-08-06T12:46:44;160879.44;;;31.99;40.56
5350;BME280;2697;42.144;24.794;2023-08-06T12:49:09;160906.16;;;32.10;40.88
5350;BME280;2697;42.144;24.794;2023-08-06T12:51:35;160932.88;;;32.20;40.04
5350;BME280;2697;42.144;24.794;2023-08-06T12:54:00;160931.53;;;32.19;39.99
5350;BME280;2697;42.144;24.794;2023-08-06T12:56:26;160990.44;;;32.42;39.95
5350;BME280;2697;42.144;24.794;2023-08-06T12:58:51;161041.22;;;32.61;39.96
5350;BME280;2697;42.144;24.794;2023-08-06T13:01:16;161023.84;;;32.54;40.20